aviador You're here:

VNKT Decoded Metar

KATHMANDU in NEPAL
Report Time2014-11-26 06:50:00
UTC Time2014-11-26 07:25:37
Flight Rules mvfr MVFR
WindCalm
Visibility7000 m
Phenomena:N/A
Clouds:Few 020 Hf
Expected CloudBase > 4,400 ft AGL from Temp-Dew spread
CeilingNone
Temp19°C (ISA +13)
Dew Point08°C (49% RH)
AAT18.5°C
QNH1014 hPa
Density Alt5,981 ft
Elevation4,386 ft
Report Wrong Elevation
Raw Report
METAR VNKT 260650Z 00000KT 7000 FEW020 19/08 Q1014 NOSIG=

Extra information for VNKT:More info

Metar Taf Metar & Taf Last 4 Metars F.Rules Stats Wind Profile Meteogram Temp Stats Airport Information Weather charts Add Link Nearby VenuesMetar ALERT Operation Metar Decoded Social comments